メインページ
METAR-TAF:

METAR-TAF

空港 :

ニューデリー, インド

インディラ・ガンディー国際空港

緯度: 28-34N, 経度: 077-07E, 海抜: 220m

現時点の気象観測

当レポートは44分前の14:00(UTC)に作成
東/南東の風 4kt
気温 32°C
湿度 67%
気圧 1001 hPa
視程: 4000m
高度3500ftの雲は散在している
高度10000ftの雲は散在している
煙霧

METAR: VIDP 271400Z 11004KT 4000 HZ SCT035 SCT100 32/25 Q1001 NOSIG

時間: 20:14 (14:44 UTC)

予報

当レポートは3時間44分前の11:00(UTC)に作成
予報は27日の 12時(UTC)から 28日の 18時(UTC)まで有効
東/南東の風 10kt
視程: 4000m
高度3500ftの雲は散在している
高度10000ftの千切れ雲あり
煙霧
27日の 14時(UTC)から 27日の 20時(UTC)まで一時的に
視程: 1500m
高度3500ftの雲はほとんどない, 積乱雲.
高度8000ftの曇り
激しい雷雨, 小雨
27日の 20時(UTC)から 27日の 22時(UTC)まで徐々に
東/北東の風 5kt
視程: 3000m
煙霧, 靄
27日の 22時(UTC)から 28日の 03時(UTC)まで一時的に
の風 10kt、最大20ktの突風を伴う
視程: 1500m
高度3500ftの雲はほとんどない, 積乱雲.
高度8000ftの曇り
激しい雷雨, 小雨
28日の 05時(UTC)から 28日の 07時(UTC)まで徐々に
東/南東の風 8kt
視程: 4000m
高度3500ftの雲はほとんどない
高度10000ftの雲は散在している
煙霧
28日の 09時(UTC)から 28日の 14時(UTC)まで一時的に
視程: 1500m
高度3500ftの雲はほとんどない, 積乱雲.
高度9000ftの千切れ雲あり
激しい雷雨, 小雨

TAF: VIDP 271100Z 2712/2818 12010KT 4000 HZ SCT035 BKN100 TEMPO 2714/2720 1500 -TSRA FEW035CB OVC080 BECMG 2720/2722 07005KT 3000 HZ BR TEMPO 2722/2803 09010G20KT 1500 -TSRA FEW035CB OVC080 BECMG 2805/2807 11008KT 4000 HZ FEW035 SCT100 TEMPO 2809/2814 1500 -TSRA FEW035CB BKN090

4,000以上の空港の気象観測と天気予報(METAR報とTAF報)

利用可能な観測所は地図上に黄色い丸と赤い丸で示す。

丸の上にカーソルを重ねると観測所名を参照できる。

次にクリックすると気象観測と天気予報を参照できる。

マップの切り替え:黒色「×」印の緑ボタンをクリックして拡大、「-」印の緑ボタンをクリックして縮小、緑色の三角印をクリックして隣りの地図に切り替え


METAR-TAF: